Time;durP1;ratioP1;P1;durP2;ratioP2;P2;SDS_P1;SDS_P2;PMS_P1;PMS_P2;Temp;Humidity;BMP_temperature;BMP_pressure;BME280_temperature;BME280_humidity;BME280_pressure;Samples;Min_cycle;Max_cycle;Signal;HPM_P1;HPM_P2
2021/03/10 00:00:29;;;;;;;13.65;9.70;;;2.20;99.90;;;;;;5024190;28;20062;-49
2021/03/10 00:02:55;;;;;;;12.45;9.35;;;2.20;99.90;;;;;;5028830;28;20106;-48
2021/03/10 00:05:21;;;;;;;14.20;10.10;;;2.30;99.90;;;;;;5031771;28;20033;-46
2021/03/10 00:07:46;;;;;;;13.85;9.95;;;2.30;99.90;;;;;;5030909;28;20068;-48
2021/03/10 00:10:13;;;;;;;14.85;9.60;;;2.30;99.90;;;;;;5024628;28;20080;-50
2021/03/10 00:12:40;;;;;;;14.68;9.65;;;2.30;99.90;;;;;;5027971;28;20064;-46
2021/03/10 00:15:08;;;;;;;14.50;10.93;;;2.30;99.90;;;;;;5036981;28;20033;-48
2021/03/10 00:17:34;;;;;;;15.73;10.10;;;2.20;99.90;;;;;;5033681;28;20029;-48
2021/03/10 00:20:00;;;;;;;17.35;10.95;;;2.10;99.90;;;;;;5033051;28;20044;-49
2021/03/10 00:22:26;;;;;;;17.35;11.07;;;2.10;99.90;;;;;;5033575;28;20415;-49
2021/03/10 00:24:51;;;;;;;17.77;10.60;;;2.10;99.90;;;;;;5038502;28;20033;-51
2021/03/10 00:27:26;;;;;;;15.55;9.85;;;2.00;99.90;;;;;;5031495;28;20034;-47
2021/03/10 00:29:53;;;;;;;13.82;10.05;;;2.10;99.90;;;;;;5036236;28;20033;-47
2021/03/10 00:32:19;;;;;;;13.80;10.32;;;2.10;99.90;;;;;;5020080;28;20029;-50
2021/03/10 00:34:46;;;;;;;15.48;10.82;;;2.10;99.90;;;;;;5022670;28;20115;-48
2021/03/10 00:37:11;;;;;;;13.90;9.50;;;2.20;99.90;;;;;;5019761;28;20101;-50
2021/03/10 00:39:37;;;;;;;14.75;10.05;;;2.20;99.90;;;;;;5025586;28;20104;-47
2021/03/10 00:42:03;;;;;;;12.88;9.40;;;2.20;99.90;;;;;;5046227;23;20045;-60
2021/03/10 00:44:28;;;;;;;17.52;11.13;;;2.20;99.90;;;;;;5043684;28;20041;-58
2021/03/10 00:46:54;;;;;;;13.90;10.13;;;2.20;99.90;;;;;;5045894;28;20029;-62
2021/03/10 00:49:19;;;;;;;14.18;10.13;;;2.20;99.90;;;;;;5049408;28;20021;-59
2021/03/10 00:51:45;;;;;;;13.18;9.93;;;2.20;99.90;;;;;;5047148;28;20104;-59
2021/03/10 00:54:10;;;;;;;13.18;9.13;;;2.10;99.90;;;;;;5037264;28;20112;-60
2021/03/10 00:56:36;;;;;;;13.60;9.98;;;2.10;99.90;;;;;;5040415;28;20511;-62
2021/03/10 00:59:01;;;;;;;15.57;10.48;;;2.10;99.90;;;;;;5046370;28;20033;-61
2021/03/10 01:01:27;;;;;;;15.20;10.23;;;2.10;99.90;;;;;;5043807;28;20063;-57
2021/03/10 01:03:52;;;;;;;14.05;10.23;;;2.10;99.90;;;;;;5042213;28;20017;-59
2021/03/10 01:06:23;;;;;;;15.50;9.95;;;2.10;99.90;;;;;;5039060;28;20034;-62
2021/03/10 01:08:49;;;;;;;14.90;9.15;;;2.10;99.90;;;;;;5035115;28;20471;-61
2021/03/10 01:11:15;;;;;;;10.98;8.40;;;2.10;99.90;;;;;;5034056;28;20025;-60
2021/03/10 01:13:40;;;;;;;16.55;9.98;;;2.10;99.90;;;;;;5039534;28;20059;-62
2021/03/10 01:16:06;;;;;;;14.18;9.82;;;2.10;99.90;;;;;;5044954;28;20098;-59
2021/03/10 01:18:31;;;;;;;12.25;9.30;;;2.10;99.90;;;;;;5037469;28;20055;-59
2021/03/10 01:20:57;;;;;;;14.13;10.38;;;2.00;99.90;;;;;;5043261;28;20025;-59
2021/03/10 01:23:22;;;;;;;12.23;10.35;;;2.00;99.90;;;;;;5036615;28;20047;-59
2021/03/10 01:25:48;;;;;;;13.30;9.73;;;2.00;99.90;;;;;;5031440;28;20029;-58
2021/03/10 01:28:14;;;;;;;14.65;9.90;;;2.00;99.90;;;;;;5031027;28;20439;-57
2021/03/10 01:30:39;;;;;;;17.08;11.07;;;2.00;99.90;;;;;;5031059;28;20034;-61
2021/03/10 01:33:05;;;;;;;17.63;11.13;;;1.90;99.90;;;;;;5036101;28;20041;-61
2021/03/10 01:35:31;;;;;;;15.52;10.13;;;1.90;99.90;;;;;;5034683;28;20488;-61
2021/03/10 01:37:56;;;;;;;15.88;10.65;;;1.90;99.90;;;;;;5027970;28;20034;-58
2021/03/10 01:40:22;;;;;;;14.75;10.25;;;1.90;99.90;;;;;;5026346;28;20040;-61
2021/03/10 01:42:48;;;;;;;16.38;10.25;;;1.90;99.90;;;;;;5022905;28;20107;-60
2021/03/10 01:45:14;;;;;;;17.08;10.10;;;1.90;99.90;;;;;;5022886;28;20052;-60
2021/03/10 01:47:43;;;;;;;13.77;9.90;;;1.90;99.90;;;;;;5027488;28;20045;-60
2021/03/10 01:50:10;;;;;;;15.57;11.07;;;1.80;99.90;;;;;;5023654;28;20570;-60
2021/03/10 01:52:35;;;;;;;17.48;10.52;;;1.80;99.90;;;;;;5022023;28;20112;-60
2021/03/10 01:55:01;;;;;;;16.55;11.00;;;1.80;99.90;;;;;;5018315;28;20464;-59
2021/03/10 01:57:27;;;;;;;14.82;10.63;;;1.80;99.90;;;;;;5023957;28;20026;-61
2021/03/10 01:59:53;;;;;;;13.18;9.45;;;1.80;99.90;;;;;;5022237;28;20487;-60
2021/03/10 02:02:18;;;;;;;15.32;10.38;;;1.80;99.90;;;;;;5018614;28;20061;-60
2021/03/10 02:04:44;;;;;;;16.52;11.05;;;1.80;99.90;;;;;;5021183;28;20106;-58
2021/03/10 02:07:37;;;;;;;14.02;10.07;;;1.80;99.90;;;;;;5018030;28;20068;-60
2021/03/10 02:10:27;;;;;;;15.40;10.65;;;1.80;99.90;;;;;;5023239;28;20022;-59
2021/03/10 02:13:24;;;;;;;13.32;9.75;;;1.80;99.90;;;;;;5016144;28;20077;-57
2021/03/10 02:16:06;;;;;;;16.07;9.90;;;1.70;99.90;;;;;;5015450;28;20455;-56
2021/03/10 02:19:09;;;;;;;13.70;10.40;;;1.70;99.90;;;;;;5017730;28;20026;-56
2021/03/10 02:22:00;;;;;;;16.00;9.85;;;1.70;99.90;;;;;;5015099;28;20064;-60
2021/03/10 02:24:53;;;;;;;16.90;10.70;;;1.60;99.90;;;;;;5019651;28;20029;-59
2021/03/10 02:27:45;;;;;;;14.05;9.88;;;1.60;99.90;;;;;;5021662;28;20030;-61
2021/03/10 02:30:27;;;;;;;15.02;10.70;;;1.60;99.90;;;;;;5016774;28;20076;-58
2021/03/10 02:33:06;;;;;;;15.48;10.35;;;1.60;99.90;;;;;;5019850;28;20639;-59
2021/03/10 02:35:32;;;;;;;14.55;10.07;;;1.60;99.90;;;;;;5021698;28;20038;-60
2021/03/10 02:38:01;;;;;;;16.40;10.48;;;1.60;99.90;;;;;;5021280;28;20038;-59
2021/03/10 02:40:29;;;;;;;14.00;10.05;;;1.50;99.90;;;;;;5021148;28;20055;-61
2021/03/10 02:42:55;;;;;;;15.40;11.32;;;1.50;99.90;;;;;;5020849;28;20760;-59
2021/03/10 02:45:23;;;;;;;12.80;10.00;;;1.50;99.90;;;;;;5022527;28;20084;-59
2021/03/10 02:47:50;;;;;;;17.05;11.23;;;1.50;99.90;;;;;;5016707;28;20490;-59
2021/03/10 02:50:16;;;;;;;15.45;10.65;;;1.50;99.90;;;;;;5016900;28;20116;-60
2021/03/10 02:52:42;;;;;;;16.02;10.77;;;1.50;99.90;;;;;;5021350;28;20504;-61
2021/03/10 02:55:09;;;;;;;14.30;10.20;;;1.50;99.90;;;;;;5022462;28;20037;-63
2021/03/10 02:57:36;;;;;;;13.32;10.23;;;1.50;99.90;;;;;;5018540;28;20034;-58
2021/03/10 03:00:13;;;;;;;14.10;10.95;;;1.40;99.90;;;;;;5027302;28;20029;-58
2021/03/10 03:02:39;;;;;;;14.07;10.43;;;1.40;99.90;;;;;;5044438;28;20103;-59
2021/03/10 03:05:06;;;;;;;15.05;9.75;;;1.40;99.90;;;;;;5033680;28;20666;-57
2021/03/10 03:07:32;;;;;;;17.25;10.30;;;1.40;99.90;;;;;;5025797;28;20029;-61
2021/03/10 03:10:00;;;;;;;14.45;10.35;;;1.40;99.90;;;;;;5047252;28;20057;-62
2021/03/10 03:12:26;;;;;;;13.80;10.18;;;1.40;99.90;;;;;;5024389;28;20013;-61
2021/03/10 03:14:52;;;;;;;16.58;10.43;;;1.40;99.90;;;;;;5038646;28;20025;-59
2021/03/10 03:17:19;;;;;;;15.95;10.38;;;1.30;99.90;;;;;;5032476;28;20511;-59
2021/03/10 03:19:44;;;;;;;14.60;10.57;;;1.30;99.90;;;;;;5041393;28;20163;-60
2021/03/10 03:22:10;;;;;;;13.75;10.32;;;1.30;99.90;;;;;;5043271;28;20108;-58
2021/03/10 03:24:36;;;;;;;13.82;9.98;;;1.30;99.90;;;;;;5033847;28;20037;-58
2021/03/10 03:27:03;;;;;;;13.80;10.48;;;1.30;99.90;;;;;;5027639;28;20034;-61
2021/03/10 03:29:31;;;;;;;14.02;9.93;;;1.30;99.90;;;;;;5028903;28;20108;-61
2021/03/10 03:31:57;;;;;;;12.38;9.13;;;1.20;99.90;;;;;;5025889;28;20037;-59
2021/03/10 03:34:24;;;;;;;13.68;9.82;;;1.20;99.90;;;;;;5046245;28;20104;-60
2021/03/10 03:36:50;;;;;;;15.23;9.95;;;1.20;99.90;;;;;;5040312;28;20516;-59
2021/03/10 03:39:16;;;;;;;13.40;10.13;;;1.20;99.90;;;;;;5042410;28;20032;-61
2021/03/10 03:41:43;;;;;;;13.27;10.10;;;1.20;99.90;;;;;;5033098;28;20112;-60
2021/03/10 03:44:09;;;;;;;14.82;9.75;;;1.20;99.90;;;;;;5041820;28;20033;-63
2021/03/10 03:46:35;;;;;;;11.50;9.13;;;1.20;99.90;;;;;;5035934;28;20031;-59
2021/03/10 03:49:02;;;;;;;13.95;10.18;;;1.20;99.90;;;;;;5053473;28;20045;-56
2021/03/10 03:51:30;;;;;;;11.88;9.00;;;1.20;99.90;;;;;;5038496;28;20506;-59
2021/03/10 03:54:01;;;;;;;15.40;9.40;;;1.20;99.90;;;;;;5053393;28;20475;-60
2021/03/10 03:56:28;;;;;;;14.75;10.23;;;1.20;99.90;;;;;;5040919;28;20033;-59
2021/03/10 03:58:54;;;;;;;12.90;9.23;;;1.10;99.90;;;;;;5037799;28;20117;-60
2021/03/10 04:01:20;;;;;;;13.57;9.52;;;1.10;99.90;;;;;;5046605;28;20370;-59
2021/03/10 04:03:46;;;;;;;10.68;9.55;;;1.10;99.90;;;;;;5052870;28;20100;-57
2021/03/10 04:06:15;;;;;;;10.25;8.18;;;1.00;99.90;;;;;;5026478;28;20488;-62
2021/03/10 04:08:41;;;;;;;11.57;8.75;;;0.90;99.90;;;;;;5025193;28;20018;-60
2021/03/10 04:11:09;;;;;;;13.68;9.32;;;0.90;99.90;;;;;;5052349;28;20418;-57
2021/03/10 04:13:35;;;;;;;12.07;8.48;;;0.80;99.90;;;;;;5047912;28;20025;-59
2021/03/10 04:16:00;;;;;;;12.35;9.35;;;0.80;99.90;;;;;;5028937;28;20034;-60
2021/03/10 04:18:26;;;;;;;11.07;7.97;;;0.80;99.90;;;;;;5042864;28;20040;-60
2021/03/10 04:20:51;;;;;;;12.05;7.95;;;0.70;99.90;;;;;;5042761;28;20078;-57
2021/03/10 04:23:17;;;;;;;13.90;8.00;;;0.70;99.90;;;;;;5037424;28;20025;-60
2021/03/10 04:25:43;;;;;;;10.57;7.13;;;0.70;99.90;;;;;;5048092;28;20027;-60
2021/03/10 04:28:09;;;;;;;11.68;7.47;;;0.70;99.90;;;;;;5039505;28;20030;-60
2021/03/10 04:30:34;;;;;;;12.40;9.40;;;0.60;99.90;;;;;;5032893;28;20495;-60
2021/03/10 04:33:00;;;;;;;12.35;8.27;;;0.50;99.90;;;;;;5052268;28;20040;-58
2021/03/10 04:35:26;;;;;;;11.25;7.55;;;0.50;99.90;;;;;;5040822;28;20615;-56
2021/03/10 04:37:51;;;;;;;9.90;6.50;;;0.50;99.90;;;;;;5048569;28;20100;-60
2021/03/10 04:40:19;;;;;;;10.85;7.53;;;0.40;99.90;;;;;;5030829;28;20033;-61
2021/03/10 04:42:44;;;;;;;12.93;8.05;;;0.40;99.90;;;;;;5032813;28;20052;-60
2021/03/10 04:45:12;;;;;;;11.02;7.18;;;0.30;99.90;;;;;;5040902;28;20052;-57
2021/03/10 04:47:38;;;;;;;10.35;6.88;;;0.30;99.90;;;;;;5048461;28;20395;-58
2021/03/10 04:50:06;;;;;;;11.55;7.55;;;0.20;99.90;;;;;;5049875;28;20025;-58
2021/03/10 04:52:32;;;;;;;11.05;7.10;;;0.20;99.90;;;;;;5034779;28;20029;-60
2021/03/10 04:54:57;;;;;;;10.48;6.57;;;0.20;99.90;;;;;;5048173;28;20394;-60
2021/03/10 04:57:23;;;;;;;10.27;7.25;;;0.20;99.90;;;;;;5045783;28;20025;-61
2021/03/10 04:59:48;;;;;;;13.45;7.25;;;0.20;99.90;;;;;;5042356;28;20362;-59
2021/03/10 05:02:14;;;;;;;9.60;7.03;;;0.10;99.90;;;;;;5027281;28;20041;-62
2021/03/10 05:04:39;;;;;;;11.80;7.32;;;0.10;99.90;;;;;;5045812;28;20402;-62
2021/03/10 05:07:06;;;;;;;7.93;6.28;;;0.10;99.90;;;;;;5037318;28;20120;-60
2021/03/10 05:09:31;;;;;;;8.85;6.38;;;0.10;99.90;;;;;;5040866;28;20044;-57
2021/03/10 05:11:57;;;;;;;9.77;6.65;;;0.00;99.90;;;;;;5046326;28;20029;-58
2021/03/10 05:14:23;;;;;;;10.52;6.28;;;0.00;99.90;;;;;;5035749;28;20034;-61
2021/03/10 05:16:49;;;;;;;9.10;6.45;;;0.00;99.90;;;;;;5022543;28;20037;-60
2021/03/10 05:19:15;;;;;;;9.57;6.97;;;0.00;99.90;;;;;;5029400;28;20123;-58
2021/03/10 05:21:40;;;;;;;7.53;6.25;;;0.00;99.90;;;;;;5045541;28;20125;-61
2021/03/10 05:24:07;;;;;;;9.18;6.50;;;-0.10;99.90;;;;;;5031079;28;20034;-60
2021/03/10 05:26:32;;;;;;;12.15;8.10;;;-0.10;99.90;;;;;;5032083;28;20025;-58
2021/03/10 05:28:58;;;;;;;11.10;6.70;;;-0.20;99.90;;;;;;5034346;28;20031;-60
2021/03/10 05:31:24;;;;;;;11.40;7.05;;;-0.20;99.90;;;;;;5028428;28;20068;-59
2021/03/10 05:33:49;;;;;;;9.40;6.55;;;-0.30;99.90;;;;;;5024946;28;20734;-60
2021/03/10 05:36:15;;;;;;;7.90;6.20;;;-0.30;99.90;;;;;;5042383;28;20032;-59
2021/03/10 05:38:40;;;;;;;10.98;6.65;;;-0.30;99.90;;;;;;5038703;28;20060;-62
2021/03/10 05:41:07;;;;;;;7.80;6.00;;;-0.30;99.90;;;;;;5031630;28;20026;-58
2021/03/10 05:43:33;;;;;;;7.45;6.30;;;-0.40;99.90;;;;;;5042448;28;20029;-57
2021/03/10 05:45:59;;;;;;;7.75;6.15;;;-0.40;99.90;;;;;;5036698;28;20025;-59
2021/03/10 05:48:25;;;;;;;8.43;5.95;;;-0.40;99.90;;;;;;5036762;28;20617;-61
2021/03/10 05:50:51;;;;;;;9.85;5.75;;;-0.40;99.90;;;;;;5047147;28;20032;-59
2021/03/10 05:53:22;;;;;;;9.35;6.13;;;-0.40;99.90;;;;;;5023857;28;20063;-59
2021/03/10 05:55:48;;;;;;;7.13;5.60;;;-0.50;99.90;;;;;;5032165;28;20029;-62
2021/03/10 05:58:14;;;;;;;10.85;6.63;;;-0.50;99.90;;;;;;5048715;28;20082;-60
2021/03/10 06:00:47;;;;;;;8.50;6.20;;;-0.50;99.90;;;;;;5031263;28;20091;-62
2021/03/10 06:03:13;;;;;;;9.35;6.43;;;-0.60;99.90;;;;;;5022902;28;20024;-59
2021/03/10 06:05:38;;;;;;;7.82;5.43;;;-0.60;99.90;;;;;;5036368;28;20021;-60
2021/03/10 06:08:07;;;;;;;10.25;6.75;;;-0.60;99.90;;;;;;5040611;28;20032;-60
2021/03/10 06:10:40;;;;;;;7.88;5.78;;;-0.60;99.90;;;;;;5025485;28;20033;-59
2021/03/10 06:13:16;;;;;;;10.38;6.35;;;-0.60;99.90;;;;;;5029764;28;20025;-58
2021/03/10 06:15:42;;;;;;;8.45;5.68;;;-0.60;99.90;;;;;;5018839;28;20057;-60
2021/03/10 06:18:08;;;;;;;8.05;5.50;;;-0.60;99.90;;;;;;5035750;28;20076;-61
2021/03/10 06:20:34;;;;;;;10.25;6.20;;;-0.60;99.90;;;;;;5046269;28;20036;-60
2021/03/10 06:23:00;;;;;;;11.20;6.47;;;-0.60;99.90;;;;;;5038821;28;20029;-59
2021/03/10 06:25:38;;;;;;;7.38;5.30;;;-0.60;99.90;;;;;;5041937;28;20108;-59
2021/03/10 06:28:03;;;;;;;8.18;5.72;;;-0.60;99.90;;;;;;5037611;28;20037;-60
2021/03/10 06:30:41;;;;;;;8.15;6.00;;;-0.60;99.90;;;;;;5044012;28;20420;-59
2021/03/10 06:33:08;;;;;;;8.60;5.47;;;-0.50;99.90;;;;;;5047428;28;20033;-60
2021/03/10 06:35:35;;;;;;;10.73;5.85;;;-0.50;99.90;;;;;;5030665;28;20021;-57
2021/03/10 06:38:12;;;;;;;9.93;6.70;;;-0.50;99.90;;;;;;5039075;28;20033;-59
2021/03/10 06:40:54;;;;;;;9.50;6.05;;;-0.40;99.90;;;;;;5027801;28;20107;-60
2021/03/10 06:43:32;;;;;;;9.43;5.80;;;-0.40;99.90;;;;;;5046481;23;20511;-48
2021/03/10 06:46:15;;;;;;;9.30;6.53;;;-0.30;99.90;;;;;;5037351;28;20058;-47
2021/03/10 06:49:02;;;;;;;10.57;5.90;;;-0.30;99.90;;;;;;5029591;28;20044;-50
2021/03/10 06:51:29;;;;;;;8.02;5.50;;;-0.20;99.90;;;;;;5036106;28;20385;-48
2021/03/10 06:53:55;;;;;;;10.00;6.55;;;-0.10;99.90;;;;;;5034880;28;20022;-47
2021/03/10 06:56:29;;;;;;;8.25;5.63;;;0.00;99.90;;;;;;5029226;28;20400;-49
2021/03/10 06:58:58;;;;;;;8.48;5.93;;;0.00;99.90;;;;;;5039527;28;20032;-50
2021/03/10 07:01:37;;;;;;;7.95;6.30;;;0.10;99.90;;;;;;5028687;28;20026;-54
2021/03/10 07:04:03;;;;;;;6.90;5.68;;;0.20;99.90;;;;;;5029491;28;20033;-48
2021/03/10 07:06:30;;;;;;;8.27;5.95;;;0.30;99.90;;;;;;5028941;28;20013;-48
2021/03/10 07:08:57;;;;;;;9.32;5.53;;;0.30;99.90;;;;;;5030793;28;20511;-48
2021/03/10 07:11:23;;;;;;;7.22;5.30;;;0.40;99.90;;;;;;5028893;28;20104;-51
2021/03/10 07:13:50;;;;;;;9.23;6.07;;;0.50;99.90;;;;;;5027852;28;20568;-49
2021/03/10 07:16:16;;;;;;;8.02;5.72;;;0.50;99.90;;;;;;5026792;28;20408;-51
2021/03/10 07:18:43;;;;;;;8.98;6.47;;;0.60;99.90;;;;;;5028872;28;20030;-49
2021/03/10 07:21:11;;;;;;;8.23;5.70;;;0.70;99.90;;;;;;5028548;28;20064;-48
2021/03/10 07:23:42;;;;;;;7.65;5.20;;;0.70;99.90;;;;;;5028316;28;20567;-47
2021/03/10 07:26:11;;;;;;;10.07;5.43;;;0.80;99.90;;;;;;5022751;28;20107;-49
2021/03/10 07:28:38;;;;;;;9.82;5.53;;;0.80;99.90;;;;;;5028522;28;20029;-47
2021/03/10 07:31:04;;;;;;;8.75;6.20;;;0.90;99.90;;;;;;5028385;28;20041;-50
2021/03/10 07:33:29;;;;;;;9.48;5.93;;;1.00;99.90;;;;;;5028259;28;20068;-47
2021/03/10 07:35:57;;;;;;;6.43;5.28;;;1.10;99.90;;;;;;5017990;28;20105;-48
2021/03/10 07:38:25;;;;;;;9.65;6.35;;;1.20;99.90;;;;;;5019595;28;20041;-47
2021/03/10 07:40:56;;;;;;;10.13;5.82;;;1.20;99.90;;;;;;5025539;28;20048;-46
2021/03/10 07:43:32;;;;;;;9.30;6.40;;;1.30;99.90;;;;;;5027175;28;20395;-48
2021/03/10 07:45:58;;;;;;;;;;;1.30;99.90;;;;;;5028707;28;20080;-48
2021/03/10 07:48:29;;;;;;;9.67;5.57;;;1.40;99.90;;;;;;5027572;28;19913;-47
2021/03/10 07:50:55;;;;;;;9.27;5.85;;;1.50;99.90;;;;;;5027278;28;20014;-47
2021/03/10 07:53:21;;;;;;;8.60;5.97;;;1.60;99.90;;;;;;5026846;28;20021;-49
2021/03/10 07:55:48;;;;;;;9.07;6.35;;;1.60;99.90;;;;;;5026838;28;20060;-48
2021/03/10 07:58:34;;;;;;;10.38;6.53;;;1.70;99.90;;;;;;5016645;28;20026;-49
2021/03/10 08:01:00;;;;;;;14.40;7.85;;;1.80;99.90;;;;;;5011228;28;20109;-52
2021/03/10 08:03:32;;;;;;;10.90;7.43;;;1.90;99.90;;;;;;5008680;28;20109;-50
2021/03/10 08:06:05;;;;;;;9.50;6.82;;;2.00;99.90;;;;;;5024306;28;20025;-47
2021/03/10 08:08:35;;;;;;;11.63;7.32;;;2.10;99.90;;;;;;5027815;28;20036;-49
2021/03/10 08:11:10;;;;;;;12.70;6.75;;;2.10;99.90;;;;;;5028277;28;20523;-49
2021/03/10 08:13:36;;;;;;;11.52;7.55;;;2.20;99.90;;;;;;5019354;28;20032;-49
2021/03/10 08:16:05;;;;;;;13.38;7.78;;;2.30;99.90;;;;;;5025735;28;20112;-53
2021/03/10 08:18:32;;;;;;;11.90;7.93;;;2.30;99.90;;;;;;5027244;28;20025;-49
2021/03/10 08:21:16;;;;;;;10.20;6.78;;;2.40;99.90;;;;;;5026465;28;20026;-46
2021/03/10 08:23:42;;;;;;;13.43;7.72;;;2.40;99.90;;;;;;5026346;28;20120;-48
2021/03/10 08:26:08;;;;;;;11.68;8.35;;;2.50;99.90;;;;;;5030127;28;20120;-47
2021/03/10 08:28:36;;;;;;;12.82;7.93;;;2.50;99.90;;;;;;5028147;28;20031;-49
2021/03/10 08:31:10;;;;;;;15.48;8.82;;;2.60;99.90;;;;;;5020470;28;20446;-50
2021/03/10 08:33:49;;;;;;;12.43;9.70;;;2.60;99.90;;;;;;5027701;28;20381;-45
2021/03/10 08:36:16;;;;;;;16.88;9.98;;;2.60;99.90;;;;;;5028528;28;20025;-49
2021/03/10 08:38:42;;;;;;;15.65;10.07;;;2.70;99.90;;;;;;5027245;28;20087;-47
2021/03/10 08:41:08;;;;;;;14.57;9.63;;;2.70;99.90;;;;;;5029191;28;20491;-46
2021/03/10 08:43:34;;;;;;;12.40;8.20;;;2.70;99.90;;;;;;5028288;28;20570;-46
2021/03/10 08:46:00;;;;;;;15.45;9.77;;;2.80;99.90;;;;;;5028271;28;20033;-51
2021/03/10 08:48:32;;;;;;;14.00;9.43;;;2.90;99.90;;;;;;5029243;28;20021;-49
2021/03/10 08:51:01;;;;;;;14.27;9.57;;;3.00;99.90;;;;;;5034341;28;20725;-48
2021/03/10 08:53:27;;;;;;;14.75;9.85;;;3.10;99.90;;;;;;5026570;28;20032;-48
2021/03/10 08:55:52;;;;;;;13.88;10.57;;;3.20;99.90;;;;;;5028701;28;20029;-47
2021/03/10 08:58:19;;;;;;;16.05;9.63;;;3.40;99.90;;;;;;5030421;28;20083;-50
2021/03/10 09:00:45;;;;;;;15.07;9.85;;;3.50;99.90;;;;;;5030526;28;20064;-48
2021/03/10 09:03:13;;;;;;;17.77;10.75;;;3.70;99.90;;;;;;5032810;28;20033;-51
2021/03/10 09:05:40;;;;;;;16.10;10.35;;;3.80;99.90;;;;;;5029976;28;20583;-51
2021/03/10 09:08:07;;;;;;;17.60;12.48;;;3.90;99.90;;;;;;5030255;28;20446;-51
2021/03/10 09:10:34;;;;;;;17.35;11.82;;;4.00;99.90;;;;;;5030374;28;20480;-53
2021/03/10 09:13:00;;;;;;;18.30;12.40;;;4.10;99.90;;;;;;5024361;28;20059;-51
2021/03/10 09:15:27;;;;;;;20.83;12.55;;;4.20;99.90;;;;;;5039830;28;20033;-47
2021/03/10 09:18:03;;;;;;;18.38;12.82;;;4.30;99.90;;;;;;5035227;28;20144;-48
2021/03/10 09:20:31;;;;;;;17.90;12.00;;;4.30;99.90;;;;;;5024423;28;20026;-50
2021/03/10 09:22:58;;;;;;;21.48;13.05;;;4.40;99.90;;;;;;5029409;28;20542;-47
2021/03/10 09:25:32;;;;;;;18.63;13.05;;;4.50;99.90;;;;;;5029122;28;20028;-49
2021/03/10 09:28:10;;;;;;;21.60;13.55;;;4.50;99.90;;;;;;5029193;28;20565;-48
2021/03/10 09:30:40;;;;;;;22.98;15.20;;;4.60;99.90;;;;;;5016198;28;20100;-51
2021/03/10 09:33:23;;;;;;;23.90;15.57;;;4.70;99.90;;;;;;5030053;28;20022;-52
2021/03/10 09:35:57;;;;;;;22.90;15.50;;;4.80;99.90;;;;;;5029512;28;20510;-47
2021/03/10 09:38:25;;;;;;;23.98;15.35;;;4.80;99.90;;;;;;5029804;28;20029;-49
2021/03/10 09:41:01;;;;;;;24.55;16.50;;;4.90;99.90;;;;;;5027289;28;20037;-51
2021/03/10 09:43:28;;;;;;;;;;;5.00;99.90;;;;;;5028912;28;20025;-51
2021/03/10 09:46:04;;;;;;;;;;;5.00;99.90;;;;;;5023480;28;19913;-51
2021/03/10 09:48:32;;;;;;;22.23;14.07;;;5.10;99.90;;;;;;5020777;28;19909;-49
2021/03/10 09:51:13;;;;;;;23.45;14.70;;;5.10;99.90;;;;;;5026822;28;20025;-50
2021/03/10 09:53:43;;;;;;;19.65;14.80;;;5.20;99.90;;;;;;5028612;28;20021;-48
2021/03/10 09:56:10;;;;;;;21.33;15.48;;;5.20;99.90;;;;;;5019248;28;20491;-50
2021/03/10 09:58:55;;;;;;;24.55;15.15;;;5.30;99.90;;;;;;5029058;28;20028;-48
2021/03/10 10:01:22;;;;;;;21.95;14.48;;;5.40;99.90;;;;;;5028769;28;20018;-51
2021/03/10 10:03:48;;;;;;;23.70;15.55;;;5.40;99.90;;;;;;5028964;28;20009;-49
2021/03/10 10:06:16;;;;;;;23.70;15.52;;;5.50;99.90;;;;;;5028496;28;20040;-50
2021/03/10 10:08:42;;;;;;;20.65;15.00;;;5.60;99.90;;;;;;5028758;28;20017;-51
2021/03/10 10:11:09;;;;;;;23.30;15.43;;;5.70;99.90;;;;;;5028197;28;20076;-51
2021/03/10 10:13:34;;;;;;;23.63;15.25;;;5.70;99.90;;;;;;5026854;28;20518;-48
2021/03/10 10:16:00;;;;;;;21.05;15.35;;;5.80;99.90;;;;;;5028567;28;20025;-52
2021/03/10 10:18:26;;;;;;;24.80;15.45;;;5.80;99.90;;;;;;5028503;28;20025;-50
2021/03/10 10:20:51;;;;;;;21.92;14.55;;;5.90;99.90;;;;;;5026143;28;20026;-51
2021/03/10 10:23:17;;;;;;;24.90;15.40;;;6.00;99.90;;;;;;5028329;28;20104;-50
2021/03/10 10:25:43;;;;;;;23.73;15.80;;;6.00;99.90;;;;;;5028283;28;20108;-51
2021/03/10 10:28:09;;;;;;;21.33;14.35;;;6.10;99.90;;;;;;5022607;28;20108;-52
2021/03/10 10:30:34;;;;;;;21.42;14.98;;;6.10;99.90;;;;;;5026154;28;20044;-50
2021/03/10 10:33:00;;;;;;;23.30;15.32;;;6.20;99.90;;;;;;5025042;28;20022;-48
2021/03/10 10:35:26;;;;;;;22.70;14.57;;;6.20;99.90;;;;;;5025037;28;20037;-51
2021/03/10 10:37:52;;;;;;;26.58;15.68;;;6.20;99.90;;;;;;5028457;28;20092;-48
2021/03/10 10:40:20;;;;;;;20.65;14.10;;;6.30;99.90;;;;;;5028399;28;20480;-46
2021/03/10 10:42:46;;;;;;;20.70;14.27;;;6.30;99.90;;;;;;5028619;28;20020;-51
2021/03/10 10:45:13;;;;;;;21.95;14.18;;;6.50;99.90;;;;;;5027202;28;20109;-49
2021/03/10 10:47:39;;;;;;;20.80;13.77;;;6.50;99.90;;;;;;5027975;28;20029;-48
2021/03/10 10:50:06;;;;;;;23.45;14.70;;;6.60;99.90;;;;;;5028650;28;20564;-47
2021/03/10 10:52:35;;;;;;;20.33;14.82;;;6.60;99.90;;;;;;5023481;28;20099;-49
2021/03/10 10:55:03;;;;;;;18.02;13.98;;;6.70;99.90;;;;;;5026761;28;20021;-47
2021/03/10 10:57:28;;;;;;;21.27;14.50;;;6.80;99.90;;;;;;5023654;28;20032;-50
2021/03/10 10:59:54;;;;;;;19.88;14.15;;;6.90;99.90;;;;;;5028023;28;20447;-48
2021/03/10 11:02:19;;;;;;;18.60;13.95;;;6.90;99.90;;;;;;5024920;28;20384;-51
2021/03/10 11:04:45;;;;;;;22.05;14.77;;;7.00;99.90;;;;;;5026713;28;20030;-49
2021/03/10 11:07:11;;;;;;;18.88;13.23;;;7.10;99.90;;;;;;5028622;28;20026;-48
2021/03/10 11:09:39;;;;;;;19.30;13.65;;;7.10;99.90;;;;;;5019512;28;20030;-48
2021/03/10 11:12:07;;;;;;;22.25;14.70;;;7.20;99.90;;;;;;5027145;28;20025;-50
2021/03/10 11:14:33;;;;;;;19.50;13.75;;;7.30;99.90;;;;;;5025400;28;20021;-48
2021/03/10 11:16:58;;;;;;;21.48;14.93;;;7.30;99.90;;;;;;5019010;28;20041;-51
2021/03/10 11:19:24;;;;;;;19.48;14.35;;;7.40;99.90;;;;;;5023939;28;20026;-52
2021/03/10 11:21:50;;;;;;;21.90;15.45;;;7.40;99.90;;;;;;5024540;28;20037;-47
2021/03/10 11:24:16;;;;;;;21.95;15.52;;;7.40;99.90;;;;;;5023891;28;20060;-50
2021/03/10 11:26:42;;;;;;;23.65;16.23;;;7.50;99.90;;;;;;5020882;28;20049;-47
2021/03/10 11:29:08;;;;;;;24.20;16.65;;;7.60;99.90;;;;;;5027454;28;20612;-49
2021/03/10 11:31:34;;;;;;;23.38;16.67;;;7.60;99.90;;;;;;5027880;28;20021;-53
2021/03/10 11:34:00;;;;;;;23.25;16.20;;;7.60;99.90;;;;;;5027397;28;20399;-51
2021/03/10 11:36:25;;;;;;;28.85;17.13;;;7.60;99.90;;;;;;5027546;28;20020;-49
2021/03/10 11:38:51;;;;;;;25.95;17.15;;;7.60;99.90;;;;;;5027606;28;20056;-49
2021/03/10 11:41:17;;;;;;;28.83;17.30;;;7.60;99.90;;;;;;5022999;28;20033;-52
2021/03/10 11:43:42;;;;;;;24.55;16.77;;;7.50;99.90;;;;;;5025366;28;20037;-49
2021/03/10 11:46:08;;;;;;;25.40;17.10;;;7.50;99.90;;;;;;5028559;28;20021;-52
2021/03/10 11:48:33;;;;;;;25.25;17.33;;;7.50;99.90;;;;;;5022989;28;20037;-50
2021/03/10 11:50:59;;;;;;;25.55;18.02;;;7.60;99.90;;;;;;5023463;28;20086;-56
2021/03/10 11:53:24;;;;;;;24.52;16.95;;;7.70;99.90;;;;;;5022975;28;20018;-48
2021/03/10 11:55:50;;;;;;;22.35;15.32;;;7.70;99.90;;;;;;5025727;28;20021;-50
2021/03/10 11:58:16;;;;;;;25.75;16.10;;;7.70;99.90;;;;;;5027465;28;20078;-51
2021/03/10 12:00:42;;;;;;;24.50;16.17;;;7.70;99.90;;;;;;5029406;28;20053;-48
2021/03/10 12:03:08;;;;;;;25.67;17.10;;;7.70;99.90;;;;;;5030713;28;20140;-50
2021/03/10 12:05:34;;;;;;;22.48;15.70;;;7.70;99.90;;;;;;5030503;28;20092;-48
2021/03/10 12:07:59;;;;;;;24.13;14.95;;;7.70;99.90;;;;;;5030521;28;20103;-49
2021/03/10 12:10:25;;;;;;;21.88;14.48;;;7.70;99.90;;;;;;5030400;28;20463;-53
2021/03/10 12:12:50;;;;;;;18.98;14.38;;;7.70;99.90;;;;;;5030466;28;20016;-52
2021/03/10 12:15:18;;;;;;;17.50;13.45;;;7.80;99.90;;;;;;5028938;28;20727;-52
2021/03/10 12:17:43;;;;;;;19.55;13.02;;;7.80;99.90;;;;;;5030764;28;20163;-49
2021/03/10 12:20:09;;;;;;;18.30;12.38;;;7.90;99.90;;;;;;5030973;28;20412;-46
2021/03/10 12:22:35;;;;;;;20.13;14.38;;;7.90;99.90;;;;;;5030246;28;20099;-49
2021/03/10 12:25:01;;;;;;;18.52;12.90;;;7.90;99.90;;;;;;5031134;28;20025;-49
2021/03/10 12:27:26;;;;;;;20.58;14.05;;;7.90;99.90;;;;;;5030751;28;20064;-51
2021/03/10 12:29:54;;;;;;;22.83;13.77;;;8.00;99.90;;;;;;5031221;28;20379;-51
2021/03/10 12:32:20;;;;;;;19.05;13.18;;;7.90;99.90;;;;;;5030438;28;20427;-52
2021/03/10 12:34:46;;;;;;;19.08;13.60;;;7.90;99.90;;;;;;5031132;28;20025;-48
2021/03/10 12:37:12;;;;;;;20.48;13.88;;;7.90;99.90;;;;;;5030998;28;20067;-51
2021/03/10 12:39:38;;;;;;;19.23;12.50;;;8.00;99.90;;;;;;5024659;28;20071;-52
2021/03/10 12:42:05;;;;;;;17.20;12.60;;;8.00;99.90;;;;;;5022590;28;20100;-54
2021/03/10 12:44:31;;;;;;;17.13;12.93;;;8.00;99.90;;;;;;5054784;23;20041;-58
2021/03/10 12:46:56;;;;;;;15.60;12.65;;;7.90;99.90;;;;;;5049367;28;20040;-59